sensor_id;sensor_type;location;lat;lon;timestamp;P1;durP1;ratioP1;P2;durP2;ratioP2
7171;SDS011;3627;46.544;14.944;2023-01-15T00:01:22;16.23;;;10.20;;
7171;SDS011;3627;46.544;14.944;2023-01-15T00:03:49;17.37;;;10.20;;
7171;SDS011;3627;46.544;14.944;2023-01-15T00:06:16;17.37;;;11.13;;
7171;SDS011;3627;46.544;14.944;2023-01-15T00:08:43;13.20;;;9.23;;
7171;SDS011;3627;46.544;14.944;2023-01-15T00:11:11;18.63;;;11.83;;
7171;SDS011;3627;46.544;14.944;2023-01-15T00:13:37;15.53;;;10.90;;
7171;SDS011;3627;46.544;14.944;2023-01-15T00:16:04;13.37;;;7.97;;
7171;SDS011;3627;46.544;14.944;2023-01-15T00:18:30;11.90;;;7.10;;
7171;SDS011;3627;46.544;14.944;2023-01-15T00:21:00;11.60;;;7.23;;
7171;SDS011;3627;46.544;14.944;2023-01-15T00:23:26;11.87;;;7.83;;
7171;SDS011;3627;46.544;14.944;2023-01-15T00:26:13;12.50;;;7.33;;
7171;SDS011;3627;46.544;14.944;2023-01-15T00:28:57;13.50;;;7.97;;
7171;SDS011;3627;46.544;14.944;2023-01-15T00:31:23;14.73;;;8.80;;
7171;SDS011;3627;46.544;14.944;2023-01-15T00:33:50;9.90;;;8.37;;
7171;SDS011;3627;46.544;14.944;2023-01-15T00:36:16;11.43;;;7.83;;
7171;SDS011;3627;46.544;14.944;2023-01-15T00:38:43;12.37;;;8.27;;
7171;SDS011;3627;46.544;14.944;2023-01-15T00:41:09;13.73;;;7.30;;
7171;SDS011;3627;46.544;14.944;2023-01-15T00:43:37;12.67;;;7.77;;
7171;SDS011;3627;46.544;14.944;2023-01-15T00:46:03;10.37;;;6.90;;
7171;SDS011;3627;46.544;14.944;2023-01-15T00:48:30;13.47;;;8.17;;
7171;SDS011;3627;46.544;14.944;2023-01-15T00:50:56;12.67;;;8.90;;
7171;SDS011;3627;46.544;14.944;2023-01-15T00:53:22;19.17;;;10.10;;
7171;SDS011;3627;46.544;14.944;2023-01-15T00:55:49;19.27;;;10.63;;
7171;SDS011;3627;46.544;14.944;2023-01-15T00:58:15;15.60;;;9.87;;
7171;SDS011;3627;46.544;14.944;2023-01-15T01:00:43;14.03;;;9.90;;
7171;SDS011;3627;46.544;14.944;2023-01-15T01:03:09;15.37;;;9.87;;
7171;SDS011;3627;46.544;14.944;2023-01-15T01:05:36;15.97;;;9.10;;
7171;SDS011;3627;46.544;14.944;2023-01-15T01:08:02;13.40;;;9.10;;
7171;SDS011;3627;46.544;14.944;2023-01-15T01:10:28;16.93;;;9.53;;
7171;SDS011;3627;46.544;14.944;2023-01-15T01:12:55;17.43;;;9.10;;
7171;SDS011;3627;46.544;14.944;2023-01-15T01:15:21;14.13;;;8.00;;
7171;SDS011;3627;46.544;14.944;2023-01-15T01:17:51;16.07;;;9.27;;
7171;SDS011;3627;46.544;14.944;2023-01-15T01:20:17;15.30;;;10.17;;
7171;SDS011;3627;46.544;14.944;2023-01-15T01:22:46;12.00;;;8.37;;
7171;SDS011;3627;46.544;14.944;2023-01-15T01:25:13;11.00;;;7.67;;
7171;SDS011;3627;46.544;14.944;2023-01-15T01:27:39;12.63;;;7.83;;
7171;SDS011;3627;46.544;14.944;2023-01-15T01:30:06;11.07;;;7.70;;
7171;SDS011;3627;46.544;14.944;2023-01-15T01:32:32;10.20;;;7.13;;
7171;SDS011;3627;46.544;14.944;2023-01-15T01:35:00;13.90;;;7.90;;
7171;SDS011;3627;46.544;14.944;2023-01-15T01:37:26;12.87;;;8.83;;
7171;SDS011;3627;46.544;14.944;2023-01-15T01:39:53;10.03;;;7.63;;
7171;SDS011;3627;46.544;14.944;2023-01-15T01:42:20;8.17;;;6.57;;
7171;SDS011;3627;46.544;14.944;2023-01-15T01:45:04;13.33;;;7.97;;
7171;SDS011;3627;46.544;14.944;2023-01-15T01:47:31;10.17;;;7.23;;
7171;SDS011;3627;46.544;14.944;2023-01-15T01:49:58;10.63;;;6.97;;
7171;SDS011;3627;46.544;14.944;2023-01-15T01:52:28;13.33;;;8.03;;
7171;SDS011;3627;46.544;14.944;2023-01-15T01:54:55;11.10;;;8.83;;
7171;SDS011;3627;46.544;14.944;2023-01-15T01:57:21;11.47;;;7.17;;
7171;SDS011;3627;46.544;14.944;2023-01-15T01:59:49;8.90;;;6.07;;
7171;SDS011;3627;46.544;14.944;2023-01-15T02:02:15;10.57;;;6.33;;
7171;SDS011;3627;46.544;14.944;2023-01-15T02:04:43;8.10;;;6.13;;
7171;SDS011;3627;46.544;14.944;2023-01-15T02:07:09;9.87;;;6.20;;
7171;SDS011;3627;46.544;14.944;2023-01-15T02:09:38;15.40;;;7.47;;
7171;SDS011;3627;46.544;14.944;2023-01-15T02:12:05;10.60;;;6.83;;
7171;SDS011;3627;46.544;14.944;2023-01-15T02:14:34;9.43;;;6.27;;
7171;SDS011;3627;46.544;14.944;2023-01-15T02:17:04;9.03;;;7.07;;
7171;SDS011;3627;46.544;14.944;2023-01-15T02:19:36;9.47;;;7.00;;
7171;SDS011;3627;46.544;14.944;2023-01-15T02:22:08;12.80;;;7.23;;
7171;SDS011;3627;46.544;14.944;2023-01-15T02:24:41;8.70;;;6.90;;
7171;SDS011;3627;46.544;14.944;2023-01-15T02:27:12;12.33;;;6.80;;
7171;SDS011;3627;46.544;14.944;2023-01-15T02:29:52;8.30;;;5.87;;
7171;SDS011;3627;46.544;14.944;2023-01-15T02:32:22;7.00;;;5.87;;
7171;SDS011;3627;46.544;14.944;2023-01-15T02:34:51;7.80;;;5.67;;
7171;SDS011;3627;46.544;14.944;2023-01-15T02:37:20;7.73;;;5.27;;
7171;SDS011;3627;46.544;14.944;2023-01-15T02:39:47;10.27;;;5.93;;
7171;SDS011;3627;46.544;14.944;2023-01-15T02:42:16;6.20;;;5.60;;
7171;SDS011;3627;46.544;14.944;2023-01-15T02:44:43;9.97;;;6.23;;
7171;SDS011;3627;46.544;14.944;2023-01-15T02:47:11;7.03;;;5.67;;
7171;SDS011;3627;46.544;14.944;2023-01-15T02:49:38;10.90;;;6.73;;
7171;SDS011;3627;46.544;14.944;2023-01-15T02:52:06;7.93;;;6.37;;
7171;SDS011;3627;46.544;14.944;2023-01-15T02:54:34;11.70;;;7.20;;
7171;SDS011;3627;46.544;14.944;2023-01-15T02:57:01;9.93;;;7.87;;
7171;SDS011;3627;46.544;14.944;2023-01-15T02:59:33;11.03;;;8.00;;
7171;SDS011;3627;46.544;14.944;2023-01-15T03:02:02;12.80;;;8.93;;
7171;SDS011;3627;46.544;14.944;2023-01-15T03:04:30;15.03;;;8.20;;
7171;SDS011;3627;46.544;14.944;2023-01-15T03:06:58;13.33;;;8.53;;
7171;SDS011;3627;46.544;14.944;2023-01-15T03:09:26;10.93;;;8.07;;
7171;SDS011;3627;46.544;14.944;2023-01-15T03:11:58;12.20;;;7.73;;
7171;SDS011;3627;46.544;14.944;2023-01-15T03:14:26;11.93;;;7.63;;
7171;SDS011;3627;46.544;14.944;2023-01-15T03:16:59;13.03;;;6.50;;
7171;SDS011;3627;46.544;14.944;2023-01-15T03:19:26;6.40;;;5.63;;
7171;SDS011;3627;46.544;14.944;2023-01-15T03:21:55;9.63;;;6.00;;
7171;SDS011;3627;46.544;14.944;2023-01-15T03:24:24;9.43;;;5.97;;
7171;SDS011;3627;46.544;14.944;2023-01-15T03:26:52;6.57;;;5.20;;
7171;SDS011;3627;46.544;14.944;2023-01-15T03:29:19;7.00;;;5.70;;
7171;SDS011;3627;46.544;14.944;2023-01-15T03:31:46;7.93;;;5.03;;
7171;SDS011;3627;46.544;14.944;2023-01-15T03:34:15;9.33;;;6.43;;
7171;SDS011;3627;46.544;14.944;2023-01-15T03:36:41;8.00;;;6.07;;
7171;SDS011;3627;46.544;14.944;2023-01-15T03:39:08;8.30;;;6.83;;
7171;SDS011;3627;46.544;14.944;2023-01-15T03:41:39;11.77;;;7.20;;
7171;SDS011;3627;46.544;14.944;2023-01-15T03:44:10;12.40;;;8.37;;
7171;SDS011;3627;46.544;14.944;2023-01-15T03:46:48;13.10;;;8.33;;
7171;SDS011;3627;46.544;14.944;2023-01-15T03:49:20;9.97;;;8.43;;
7171;SDS011;3627;46.544;14.944;2023-01-15T03:51:51;15.73;;;8.70;;
7171;SDS011;3627;46.544;14.944;2023-01-15T03:54:20;11.10;;;8.30;;
7171;SDS011;3627;46.544;14.944;2023-01-15T03:56:50;11.07;;;7.87;;
7171;SDS011;3627;46.544;14.944;2023-01-15T03:59:20;9.40;;;7.70;;
7171;SDS011;3627;46.544;14.944;2023-01-15T04:01:48;10.60;;;6.57;;
7171;SDS011;3627;46.544;14.944;2023-01-15T04:04:15;15.10;;;6.60;;
7171;SDS011;3627;46.544;14.944;2023-01-15T04:06:44;6.30;;;5.43;;
7171;SDS011;3627;46.544;14.944;2023-01-15T04:09:11;10.23;;;6.03;;
7171;SDS011;3627;46.544;14.944;2023-01-15T04:11:38;12.00;;;6.33;;
7171;SDS011;3627;46.544;14.944;2023-01-15T04:14:05;11.00;;;6.93;;
7171;SDS011;3627;46.544;14.944;2023-01-15T04:16:31;9.60;;;7.13;;
7171;SDS011;3627;46.544;14.944;2023-01-15T04:18:58;15.17;;;8.43;;
7171;SDS011;3627;46.544;14.944;2023-01-15T04:21:24;14.03;;;9.13;;
7171;SDS011;3627;46.544;14.944;2023-01-15T04:23:52;13.67;;;8.73;;
7171;SDS011;3627;46.544;14.944;2023-01-15T04:26:19;14.20;;;8.90;;
7171;SDS011;3627;46.544;14.944;2023-01-15T04:28:45;11.63;;;7.60;;
7171;SDS011;3627;46.544;14.944;2023-01-15T04:31:11;8.40;;;6.13;;
7171;SDS011;3627;46.544;14.944;2023-01-15T04:33:38;7.10;;;5.93;;
7171;SDS011;3627;46.544;14.944;2023-01-15T04:36:05;8.40;;;5.90;;
7171;SDS011;3627;46.544;14.944;2023-01-15T04:38:31;6.00;;;5.37;;
7171;SDS011;3627;46.544;14.944;2023-01-15T04:41:00;6.00;;;5.40;;
7171;SDS011;3627;46.544;14.944;2023-01-15T04:43:49;8.10;;;6.20;;
7171;SDS011;3627;46.544;14.944;2023-01-15T04:46:34;7.17;;;6.30;;
7171;SDS011;3627;46.544;14.944;2023-01-15T04:49:01;10.67;;;7.27;;
7171;SDS011;3627;46.544;14.944;2023-01-15T04:51:27;9.30;;;6.67;;
7171;SDS011;3627;46.544;14.944;2023-01-15T04:53:54;9.57;;;7.17;;
7171;SDS011;3627;46.544;14.944;2023-01-15T04:56:22;9.10;;;5.97;;
7171;SDS011;3627;46.544;14.944;2023-01-15T04:58:48;9.83;;;5.90;;
7171;SDS011;3627;46.544;14.944;2023-01-15T05:01:15;6.47;;;5.73;;
7171;SDS011;3627;46.544;14.944;2023-01-15T05:03:43;8.00;;;5.13;;
7171;SDS011;3627;46.544;14.944;2023-01-15T05:06:09;6.83;;;5.33;;
7171;SDS011;3627;46.544;14.944;2023-01-15T05:08:36;8.57;;;6.00;;
7171;SDS011;3627;46.544;14.944;2023-01-15T05:11:03;7.00;;;6.30;;
7171;SDS011;3627;46.544;14.944;2023-01-15T05:13:31;8.57;;;6.27;;
7171;SDS011;3627;46.544;14.944;2023-01-15T05:16:05;10.23;;;7.63;;
7171;SDS011;3627;46.544;14.944;2023-01-15T05:18:32;10.13;;;7.17;;
7171;SDS011;3627;46.544;14.944;2023-01-15T05:20:58;13.37;;;8.10;;
7171;SDS011;3627;46.544;14.944;2023-01-15T05:23:24;42.60;;;19.40;;
7171;SDS011;3627;46.544;14.944;2023-01-15T05:25:51;41.57;;;18.93;;
7171;SDS011;3627;46.544;14.944;2023-01-15T05:28:17;24.10;;;13.27;;
7171;SDS011;3627;46.544;14.944;2023-01-15T05:30:45;25.33;;;12.50;;
7171;SDS011;3627;46.544;14.944;2023-01-15T05:33:12;22.10;;;12.00;;
7171;SDS011;3627;46.544;14.944;2023-01-15T05:35:38;17.10;;;9.37;;
7171;SDS011;3627;46.544;14.944;2023-01-15T05:38:05;15.93;;;9.87;;
7171;SDS011;3627;46.544;14.944;2023-01-15T05:40:31;17.23;;;9.17;;
7171;SDS011;3627;46.544;14.944;2023-01-15T05:42:58;14.60;;;8.67;;
7171;SDS011;3627;46.544;14.944;2023-01-15T05:45:24;15.37;;;9.07;;
7171;SDS011;3627;46.544;14.944;2023-01-15T05:47:52;8.30;;;6.83;;
7171;SDS011;3627;46.544;14.944;2023-01-15T05:50:19;10.33;;;6.27;;
7171;SDS011;3627;46.544;14.944;2023-01-15T05:52:45;9.10;;;5.90;;
7171;SDS011;3627;46.544;14.944;2023-01-15T05:55:12;6.70;;;5.10;;
7171;SDS011;3627;46.544;14.944;2023-01-15T05:57:38;9.13;;;6.03;;
7171;SDS011;3627;46.544;14.944;2023-01-15T06:00:05;7.67;;;6.57;;
7171;SDS011;3627;46.544;14.944;2023-01-15T06:02:31;8.17;;;5.77;;
7171;SDS011;3627;46.544;14.944;2023-01-15T06:04:59;6.13;;;5.23;;
7171;SDS011;3627;46.544;14.944;2023-01-15T06:07:26;7.57;;;6.13;;
7171;SDS011;3627;46.544;14.944;2023-01-15T06:09:52;11.10;;;7.30;;
7171;SDS011;3627;46.544;14.944;2023-01-15T06:12:18;8.40;;;6.47;;
7171;SDS011;3627;46.544;14.944;2023-01-15T06:14:45;9.07;;;6.50;;
7171;SDS011;3627;46.544;14.944;2023-01-15T06:17:11;6.93;;;6.07;;
7171;SDS011;3627;46.544;14.944;2023-01-15T06:19:39;9.20;;;6.10;;
7171;SDS011;3627;46.544;14.944;2023-01-15T06:22:06;11.00;;;6.70;;
7171;SDS011;3627;46.544;14.944;2023-01-15T06:24:33;7.37;;;6.40;;
7171;SDS011;3627;46.544;14.944;2023-01-15T06:26:59;9.47;;;7.20;;
7171;SDS011;3627;46.544;14.944;2023-01-15T06:29:25;8.57;;;6.60;;
7171;SDS011;3627;46.544;14.944;2023-01-15T06:31:52;9.33;;;6.60;;
7171;SDS011;3627;46.544;14.944;2023-01-15T06:34:18;7.63;;;5.63;;
7171;SDS011;3627;46.544;14.944;2023-01-15T06:36:45;9.53;;;7.20;;
7171;SDS011;3627;46.544;14.944;2023-01-15T06:39:12;14.30;;;6.80;;
7171;SDS011;3627;46.544;14.944;2023-01-15T06:41:39;10.33;;;6.87;;
7171;SDS011;3627;46.544;14.944;2023-01-15T06:44:23;12.93;;;8.47;;
7171;SDS011;3627;46.544;14.944;2023-01-15T06:47:10;11.70;;;7.83;;
7171;SDS011;3627;46.544;14.944;2023-01-15T06:49:47;12.23;;;7.37;;
7171;SDS011;3627;46.544;14.944;2023-01-15T06:52:13;9.07;;;7.13;;
7171;SDS011;3627;46.544;14.944;2023-01-15T06:54:41;8.67;;;6.97;;
7171;SDS011;3627;46.544;14.944;2023-01-15T06:57:07;12.03;;;7.00;;
7171;SDS011;3627;46.544;14.944;2023-01-15T06:59:34;8.90;;;6.03;;
7171;SDS011;3627;46.544;14.944;2023-01-15T07:02:00;10.57;;;7.07;;
7171;SDS011;3627;46.544;14.944;2023-01-15T07:04:27;9.57;;;6.53;;
7171;SDS011;3627;46.544;14.944;2023-01-15T07:06:53;9.30;;;6.40;;
7171;SDS011;3627;46.544;14.944;2023-01-15T07:09:19;13.17;;;8.57;;
7171;SDS011;3627;46.544;14.944;2023-01-15T07:11:47;15.57;;;9.80;;
7171;SDS011;3627;46.544;14.944;2023-01-15T07:14:16;12.43;;;9.43;;
7171;SDS011;3627;46.544;14.944;2023-01-15T07:16:43;34.40;;;18.40;;
7171;SDS011;3627;46.544;14.944;2023-01-15T07:19:09;27.80;;;15.47;;
7171;SDS011;3627;46.544;14.944;2023-01-15T07:21:36;25.03;;;14.53;;
7171;SDS011;3627;46.544;14.944;2023-01-15T07:24:02;16.70;;;11.50;;
7171;SDS011;3627;46.544;14.944;2023-01-15T07:26:29;20.47;;;11.73;;
7171;SDS011;3627;46.544;14.944;2023-01-15T07:28:57;18.47;;;11.40;;
7171;SDS011;3627;46.544;14.944;2023-01-15T07:31:23;17.60;;;11.30;;
7171;SDS011;3627;46.544;14.944;2023-01-15T07:33:49;14.73;;;10.93;;
7171;SDS011;3627;46.544;14.944;2023-01-15T07:36:16;11.67;;;8.27;;
7171;SDS011;3627;46.544;14.944;2023-01-15T07:38:42;7.13;;;5.13;;
7171;SDS011;3627;46.544;14.944;2023-01-15T07:41:09;8.63;;;6.23;;
7171;SDS011;3627;46.544;14.944;2023-01-15T07:43:52;8.60;;;5.83;;
7171;SDS011;3627;46.544;14.944;2023-01-15T07:46:38;10.53;;;6.90;;
7171;SDS011;3627;46.544;14.944;2023-01-15T07:49:22;17.70;;;10.00;;
7171;SDS011;3627;46.544;14.944;2023-01-15T07:52:05;22.27;;;11.97;;
7171;SDS011;3627;46.544;14.944;2023-01-15T07:54:32;21.10;;;11.37;;
7171;SDS011;3627;46.544;14.944;2023-01-15T07:56:58;18.07;;;11.13;;
7171;SDS011;3627;46.544;14.944;2023-01-15T07:59:25;18.43;;;12.63;;
7171;SDS011;3627;46.544;14.944;2023-01-15T08:01:52;23.73;;;13.00;;
7171;SDS011;3627;46.544;14.944;2023-01-15T08:04:19;19.27;;;12.27;;
7171;SDS011;3627;46.544;14.944;2023-01-15T08:06:46;14.47;;;8.90;;
7171;SDS011;3627;46.544;14.944;2023-01-15T08:09:12;9.38;;;6.93;;
7171;SDS011;3627;46.544;14.944;2023-01-15T08:11:39;8.10;;;6.10;;
7171;SDS011;3627;46.544;14.944;2023-01-15T08:14:22;9.80;;;6.65;;
7171;SDS011;3627;46.544;14.944;2023-01-15T08:17:07;7.18;;;5.88;;
7171;SDS011;3627;46.544;14.944;2023-01-15T08:19:34;8.10;;;6.32;;
7171;SDS011;3627;46.544;14.944;2023-01-15T08:22:01;8.05;;;6.70;;
7171;SDS011;3627;46.544;14.944;2023-01-15T08:24:27;8.15;;;6.18;;
7171;SDS011;3627;46.544;14.944;2023-01-15T08:26:53;9.52;;;6.60;;
7171;SDS011;3627;46.544;14.944;2023-01-15T08:29:20;8.43;;;6.50;;
7171;SDS011;3627;46.544;14.944;2023-01-15T08:31:47;8.85;;;7.45;;
7171;SDS011;3627;46.544;14.944;2023-01-15T08:34:15;10.50;;;7.55;;
7171;SDS011;3627;46.544;14.944;2023-01-15T08:36:43;8.70;;;7.13;;
7171;SDS011;3627;46.544;14.944;2023-01-15T08:39:09;17.70;;;11.23;;
7171;SDS011;3627;46.544;14.944;2023-01-15T08:41:35;15.98;;;11.32;;
7171;SDS011;3627;46.544;14.944;2023-01-15T08:44:02;14.43;;;10.30;;
7171;SDS011;3627;46.544;14.944;2023-01-15T08:46:29;12.73;;;9.90;;
7171;SDS011;3627;46.544;14.944;2023-01-15T08:48:55;17.58;;;11.65;;
7171;SDS011;3627;46.544;14.944;2023-01-15T08:51:23;12.73;;;9.05;;
7171;SDS011;3627;46.544;14.944;2023-01-15T08:53:49;13.45;;;8.48;;
7171;SDS011;3627;46.544;14.944;2023-01-15T08:56:17;11.35;;;8.07;;
7171;SDS011;3627;46.544;14.944;2023-01-15T08:58:44;14.20;;;8.40;;
7171;SDS011;3627;46.544;14.944;2023-01-15T09:01:12;13.52;;;8.07;;
7171;SDS011;3627;46.544;14.944;2023-01-15T09:03:40;12.57;;;8.25;;
7171;SDS011;3627;46.544;14.944;2023-01-15T09:06:07;10.38;;;7.03;;
7171;SDS011;3627;46.544;14.944;2023-01-15T09:08:36;8.95;;;6.88;;
7171;SDS011;3627;46.544;14.944;2023-01-15T09:11:03;7.20;;;6.22;;
7171;SDS011;3627;46.544;14.944;2023-01-15T09:13:30;11.10;;;8.23;;
7171;SDS011;3627;46.544;14.944;2023-01-15T09:15:57;14.65;;;10.90;;
7171;SDS011;3627;46.544;14.944;2023-01-15T09:18:24;12.55;;;9.57;;
7171;SDS011;3627;46.544;14.944;2023-01-15T09:20:50;11.30;;;8.85;;
7171;SDS011;3627;46.544;14.944;2023-01-15T09:23:17;12.05;;;8.05;;
7171;SDS011;3627;46.544;14.944;2023-01-15T09:25:51;14.38;;;8.07;;
7171;SDS011;3627;46.544;14.944;2023-01-15T09:28:17;13.02;;;7.65;;
7171;SDS011;3627;46.544;14.944;2023-01-15T09:30:43;10.82;;;8.05;;
7171;SDS011;3627;46.544;14.944;2023-01-15T09:33:10;11.68;;;8.07;;
7171;SDS011;3627;46.544;14.944;2023-01-15T09:35:36;9.27;;;7.18;;
7171;SDS011;3627;46.544;14.944;2023-01-15T09:38:03;10.80;;;5.55;;
7171;SDS011;3627;46.544;14.944;2023-01-15T09:40:35;9.05;;;6.95;;
7171;SDS011;3627;46.544;14.944;2023-01-15T09:43:07;9.70;;;7.20;;
7171;SDS011;3627;46.544;14.944;2023-01-15T09:45:36;9.80;;;6.90;;
7171;SDS011;3627;46.544;14.944;2023-01-15T09:48:08;12.80;;;9.25;;
7171;SDS011;3627;46.544;14.944;2023-01-15T09:50:39;13.85;;;8.68;;
7171;SDS011;3627;46.544;14.944;2023-01-15T09:53:16;12.85;;;9.20;;
7171;SDS011;3627;46.544;14.944;2023-01-15T09:55:44;14.15;;;10.75;;
7171;SDS011;3627;46.544;14.944;2023-01-15T09:58:13;12.80;;;9.88;;
7171;SDS011;3627;46.544;14.944;2023-01-15T10:00:42;13.63;;;9.75;;
7171;SDS011;3627;46.544;14.944;2023-01-15T10:03:11;15.60;;;10.10;;
7171;SDS011;3627;46.544;14.944;2023-01-15T10:05:41;14.95;;;9.93;;
7171;SDS011;3627;46.544;14.944;2023-01-15T10:08:10;14.25;;;9.30;;
7171;SDS011;3627;46.544;14.944;2023-01-15T10:10:40;16.23;;;10.52;;
7171;SDS011;3627;46.544;14.944;2023-01-15T10:13:12;11.07;;;8.73;;
7171;SDS011;3627;46.544;14.944;2023-01-15T10:15:44;15.35;;;9.00;;
7171;SDS011;3627;46.544;14.944;2023-01-15T10:18:12;17.38;;;11.20;;
7171;SDS011;3627;46.544;14.944;2023-01-15T10:23:34;15.90;;;9.68;;
7171;SDS011;3627;46.544;14.944;2023-01-15T10:26:02;15.55;;;9.55;;
7171;SDS011;3627;46.544;14.944;2023-01-15T10:28:30;12.57;;;8.18;;
7171;SDS011;3627;46.544;14.944;2023-01-15T10:31:01;13.50;;;9.27;;
7171;SDS011;3627;46.544;14.944;2023-01-15T10:33:33;17.15;;;9.52;;
7171;SDS011;3627;46.544;14.944;2023-01-15T10:36:02;14.30;;;9.48;;
7171;SDS011;3627;46.544;14.944;2023-01-15T10:38:31;11.30;;;8.25;;
7171;SDS011;3627;46.544;14.944;2023-01-15T10:41:04;11.27;;;6.80;;
7171;SDS011;3627;46.544;14.944;2023-01-15T10:43:36;12.13;;;8.25;;
7171;SDS011;3627;46.544;14.944;2023-01-15T10:46:09;15.52;;;8.52;;
7171;SDS011;3627;46.544;14.944;2023-01-15T10:48:37;10.98;;;7.85;;
7171;SDS011;3627;46.544;14.944;2023-01-15T10:51:06;17.58;;;12.07;;
7171;SDS011;3627;46.544;14.944;2023-01-15T10:53:39;19.45;;;13.30;;
7171;SDS011;3627;46.544;14.944;2023-01-15T10:56:07;17.67;;;11.73;;
7171;SDS011;3627;46.544;14.944;2023-01-15T10:58:38;17.10;;;10.40;;
7171;SDS011;3627;46.544;14.944;2023-01-15T11:01:09;12.60;;;8.50;;
7171;SDS011;3627;46.544;14.944;2023-01-15T11:03:39;16.83;;;10.70;;
7171;SDS011;3627;46.544;14.944;2023-01-15T11:06:07;21.45;;;12.90;;
7171;SDS011;3627;46.544;14.944;2023-01-15T11:08:37;21.52;;;13.38;;
7171;SDS011;3627;46.544;14.944;2023-01-15T11:11:08;20.40;;;12.30;;
7171;SDS011;3627;46.544;14.944;2023-01-15T11:13:39;20.15;;;12.45;;
7171;SDS011;3627;46.544;14.944;2023-01-15T11:16:23;18.90;;;11.45;;
7171;SDS011;3627;46.544;14.944;2023-01-15T11:19:09;21.02;;;11.77;;
7171;SDS011;3627;46.544;14.944;2023-01-15T11:21:58;19.20;;;11.82;;
7171;SDS011;3627;46.544;14.944;2023-01-15T11:24:25;20.90;;;14.15;;
7171;SDS011;3627;46.544;14.944;2023-01-15T11:26:51;23.48;;;15.15;;
7171;SDS011;3627;46.544;14.944;2023-01-15T11:29:20;21.75;;;14.18;;
7171;SDS011;3627;46.544;14.944;2023-01-15T11:31:51;23.92;;;14.02;;
7171;SDS011;3627;46.544;14.944;2023-01-15T11:34:19;26.52;;;14.88;;
7171;SDS011;3627;46.544;14.944;2023-01-15T11:36:46;23.92;;;14.10;;
7171;SDS011;3627;46.544;14.944;2023-01-15T11:39:22;19.98;;;13.65;;
7171;SDS011;3627;46.544;14.944;2023-01-15T11:41:56;33.58;;;21.20;;
7171;SDS011;3627;46.544;14.944;2023-01-15T11:44:40;35.72;;;20.80;;
7171;SDS011;3627;46.544;14.944;2023-01-15T11:47:32;43.50;;;27.13;;
7171;SDS011;3627;46.544;14.944;2023-01-15T11:50:18;42.13;;;26.15;;
7171;SDS011;3627;46.544;14.944;2023-01-15T11:53:02;18.00;;;12.30;;
7171;SDS011;3627;46.544;14.944;2023-01-15T11:55:28;17.52;;;11.98;;
7171;SDS011;3627;46.544;14.944;2023-01-15T11:57:55;18.40;;;12.05;;
7171;SDS011;3627;46.544;14.944;2023-01-15T12:00:22;17.52;;;10.95;;
7171;SDS011;3627;46.544;14.944;2023-01-15T12:02:49;15.35;;;11.07;;
7171;SDS011;3627;46.544;14.944;2023-01-15T12:05:18;24.25;;;15.43;;
7171;SDS011;3627;46.544;14.944;2023-01-15T12:07:46;26.88;;;18.55;;
7171;SDS011;3627;46.544;14.944;2023-01-15T12:10:17;24.35;;;15.88;;
7171;SDS011;3627;46.544;14.944;2023-01-15T12:12:49;25.77;;;15.50;;
7171;SDS011;3627;46.544;14.944;2023-01-15T12:15:30;26.58;;;15.68;;
7171;SDS011;3627;46.544;14.944;2023-01-15T12:18:05;24.20;;;14.82;;
7171;SDS011;3627;46.544;14.944;2023-01-15T12:20:39;24.00;;;13.68;;
7171;SDS011;3627;46.544;14.944;2023-01-15T12:23:13;23.75;;;14.10;;
7171;SDS011;3627;46.544;14.944;2023-01-15T12:25:46;24.27;;;13.60;;
7171;SDS011;3627;46.544;14.944;2023-01-15T12:28:16;21.33;;;13.48;;
7171;SDS011;3627;46.544;14.944;2023-01-15T12:30:47;19.80;;;13.15;;
7171;SDS011;3627;46.544;14.944;2023-01-15T12:33:20;21.67;;;12.07;;
7171;SDS011;3627;46.544;14.944;2023-01-15T12:35:50;29.02;;;15.38;;
7171;SDS011;3627;46.544;14.944;2023-01-15T12:38:22;24.23;;;11.95;;
7171;SDS011;3627;46.544;14.944;2023-01-15T12:40:50;36.03;;;20.60;;
7171;SDS011;3627;46.544;14.944;2023-01-15T12:43:20;33.95;;;19.77;;
7171;SDS011;3627;46.544;14.944;2023-01-15T12:46:06;35.40;;;17.90;;
7171;SDS011;3627;46.544;14.944;2023-01-15T12:48:36;31.88;;;17.20;;
7171;SDS011;3627;46.544;14.944;2023-01-15T12:51:07;20.63;;;13.43;;
7171;SDS011;3627;46.544;14.944;2023-01-15T12:53:37;23.23;;;14.43;;
7171;SDS011;3627;46.544;14.944;2023-01-15T12:56:06;25.38;;;15.07;;
7171;SDS011;3627;46.544;14.944;2023-01-15T12:58:37;26.52;;;16.55;;
7171;SDS011;3627;46.544;14.944;2023-01-15T13:01:09;23.05;;;14.23;;
7171;SDS011;3627;46.544;14.944;2023-01-15T13:03:44;21.95;;;15.43;;
7171;SDS011;3627;46.544;14.944;2023-01-15T13:06:13;27.42;;;14.90;;
7171;SDS011;3627;46.544;14.944;2023-01-15T13:08:43;22.13;;;11.55;;
7171;SDS011;3627;46.544;14.944;2023-01-15T13:11:11;21.98;;;11.05;;
7171;SDS011;3627;46.544;14.944;2023-01-15T13:13:38;33.35;;;19.42;;
7171;SDS011;3627;46.544;14.944;2023-01-15T13:16:12;37.67;;;19.77;;
7171;SDS011;3627;46.544;14.944;2023-01-15T13:18:44;19.45;;;11.27;;
7171;SDS011;3627;46.544;14.944;2023-01-15T13:21:16;14.70;;;9.57;;
7171;SDS011;3627;46.544;14.944;2023-01-15T13:23:50;15.00;;;10.65;;
7171;SDS011;3627;46.544;14.944;2023-01-15T13:26:22;19.42;;;10.57;;
7171;SDS011;3627;46.544;14.944;2023-01-15T13:28:56;22.90;;;13.38;;
7171;SDS011;3627;46.544;14.944;2023-01-15T13:31:31;19.45;;;11.70;;
7171;SDS011;3627;46.544;14.944;2023-01-15T13:33:59;24.75;;;12.23;;
7171;SDS011;3627;46.544;14.944;2023-01-15T13:36:30;23.90;;;13.85;;
7171;SDS011;3627;46.544;14.944;2023-01-15T13:38:58;20.30;;;11.85;;
7171;SDS011;3627;46.544;14.944;2023-01-15T13:41:25;18.00;;;11.48;;
7171;SDS011;3627;46.544;14.944;2023-01-15T13:44:14;23.70;;;13.40;;
7171;SDS011;3627;46.544;14.944;2023-01-15T13:46:42;27.75;;;14.82;;
7171;SDS011;3627;46.544;14.944;2023-01-15T13:51:51;24.33;;;13.63;;
7171;SDS011;3627;46.544;14.944;2023-01-15T13:54:18;18.75;;;11.30;;
7171;SDS011;3627;46.544;14.944;2023-01-15T13:56:46;14.68;;;9.35;;
7171;SDS011;3627;46.544;14.944;2023-01-15T13:59:28;16.73;;;9.52;;
7171;SDS011;3627;46.544;14.944;2023-01-15T14:01:56;17.58;;;9.23;;
7171;SDS011;3627;46.544;14.944;2023-01-15T14:04:31;22.02;;;11.18;;
7171;SDS011;3627;46.544;14.944;2023-01-15T14:06:59;21.85;;;12.18;;
7171;SDS011;3627;46.544;14.944;2023-01-15T14:09:26;30.65;;;17.33;;
7171;SDS011;3627;46.544;14.944;2023-01-15T14:11:58;17.77;;;10.50;;
7171;SDS011;3627;46.544;14.944;2023-01-15T14:14:39;20.98;;;12.52;;
7171;SDS011;3627;46.544;14.944;2023-01-15T14:17:15;39.10;;;16.65;;
7171;SDS011;3627;46.544;14.944;2023-01-15T14:20:05;14.95;;;9.15;;
7171;SDS011;3627;46.544;14.944;2023-01-15T14:22:50;18.42;;;9.38;;
7171;SDS011;3627;46.544;14.944;2023-01-15T14:25:21;21.80;;;12.48;;
7171;SDS011;3627;46.544;14.944;2023-01-15T14:28:00;25.40;;;15.23;;
7171;SDS011;3627;46.544;14.944;2023-01-15T14:30:35;38.08;;;18.77;;
7171;SDS011;3627;46.544;14.944;2023-01-15T14:33:10;44.13;;;26.00;;
7171;SDS011;3627;46.544;14.944;2023-01-15T14:35:43;73.82;;;39.85;;
7171;SDS011;3627;46.544;14.944;2023-01-15T14:38:12;66.22;;;32.65;;
7171;SDS011;3627;46.544;14.944;2023-01-15T14:40:47;40.40;;;23.85;;
7171;SDS011;3627;46.544;14.944;2023-01-15T14:43:16;22.48;;;13.10;;
7171;SDS011;3627;46.544;14.944;2023-01-15T14:45:43;22.23;;;15.73;;
7171;SDS011;3627;46.544;14.944;2023-01-15T14:48:15;20.45;;;16.98;;
7171;SDS011;3627;46.544;14.944;2023-01-15T14:50:42;20.08;;;13.32;;
7171;SDS011;3627;46.544;14.944;2023-01-15T14:53:25;9.07;;;5.97;;
7171;SDS011;3627;46.544;14.944;2023-01-15T14:55:55;9.45;;;6.63;;
7171;SDS011;3627;46.544;14.944;2023-01-15T14:58:28;9.52;;;5.90;;
7171;SDS011;3627;46.544;14.944;2023-01-15T15:00:56;14.35;;;8.13;;
7171;SDS011;3627;46.544;14.944;2023-01-15T15:03:25;9.98;;;6.30;;
7171;SDS011;3627;46.544;14.944;2023-01-15T15:05:53;11.80;;;8.13;;